Time,TemperatureF,DewpointF,PressureIn,WindDirection,WindDirectionDegrees,WindSpeedMPH,WindSpeedGustMPH,Humidity,HourlyPrecipIn,Conditions,Clouds,dailyrainin,SolarRadiationWatts/m^2,SoftwareType,DateUTC
2013-10-02 00:11:00,35.0,26.0,-100.00,West,277,4.0,7.0,70,0.00,,,0.03,0.000000,,2013-10-02 07:11:00,
2013-10-02 00:22:00,35.0,26.0,-100.00,West,277,4.0,7.0,70,0.00,,,0.03,0.000000,,2013-10-02 07:22:00,
2013-10-02 00:31:00,35.0,26.0,-100.00,West,277,4.0,7.0,70,0.00,,,0.03,0.000000,,2013-10-02 07:31:00,
2013-10-02 00:42:00,35.0,26.0,-100.00,West,277,4.0,7.0,70,0.00,,,0.03,0.000000,,2013-10-02 07:42:00,
2013-10-02 01:11:00,36.0,28.0,-100.00,South,186,3.0,5.0,71,0.00,,,0.03,0.000000,,2013-10-02 08:11:00,
2013-10-02 01:22:00,36.0,28.0,-100.00,South,186,3.0,5.0,71,0.00,,,0.03,0.000000,,2013-10-02 08:22:00,
2013-10-02 01:32:00,36.0,28.0,-100.00,South,186,3.0,5.0,71,0.00,,,0.03,0.000000,,2013-10-02 08:32:00,
2013-10-02 01:42:00,36.0,28.0,-100.00,South,186,3.0,5.0,71,0.00,,,0.03,0.000000,,2013-10-02 08:42:00,
2013-10-02 02:11:00,34.0,27.0,-100.00,SSE,159,0.0,5.0,76,0.00,,,0.03,0.000000,,2013-10-02 09:11:00,
2013-10-02 02:21:00,34.0,27.0,-100.00,SSE,159,0.0,5.0,76,0.00,,,0.03,0.000000,,2013-10-02 09:21:00,
2013-10-02 02:33:00,34.0,27.0,-100.00,SSE,159,0.0,5.0,76,0.00,,,0.03,0.000000,,2013-10-02 09:33:00,
2013-10-02 02:43:00,34.0,27.0,-100.00,SSE,159,0.0,5.0,76,0.00,,,0.03,0.000000,,2013-10-02 09:43:00,
2013-10-02 03:12:00,34.0,27.0,-100.00,SW,218,0.0,7.0,75,0.00,,,0.03,0.000000,,2013-10-02 10:12:00,
2013-10-02 03:23:00,34.0,27.0,-100.00,SW,218,0.0,7.0,75,0.00,,,0.03,0.000000,,2013-10-02 10:23:00,
2013-10-02 03:33:00,34.0,27.0,-100.00,SW,218,0.0,7.0,75,0.00,,,0.03,0.000000,,2013-10-02 10:33:00,
2013-10-02 03:42:00,34.0,27.0,-100.00,SW,218,0.0,7.0,75,0.00,,,0.03,0.000000,,2013-10-02 10:42:00,
2013-10-02 04:12:00,36.0,30.0,-100.00,SSE,156,5.0,8.0,79,0.00,,,0.03,0.000000,,2013-10-02 11:12:00,
2013-10-02 04:21:00,36.0,30.0,-100.00,SSE,156,5.0,8.0,79,0.00,,,0.03,0.000000,,2013-10-02 11:21:00,
2013-10-02 04:33:00,36.0,30.0,-100.00,SSE,156,5.0,8.0,79,0.00,,,0.03,0.000000,,2013-10-02 11:33:00,
2013-10-02 04:43:00,36.0,30.0,-100.00,SSE,156,5.0,8.0,79,0.00,,,0.03,0.000000,,2013-10-02 11:43:00,
2013-10-02 05:12:00,34.0,28.0,-100.00,East,98,0.0,6.0,77,0.00,,,0.03,0.000000,,2013-10-02 12:12:00,
2013-10-02 05:21:00,34.0,28.0,-100.00,East,98,0.0,6.0,77,0.00,,,0.03,0.000000,,2013-10-02 12:21:00,
2013-10-02 05:32:00,34.0,28.0,-100.00,East,98,0.0,6.0,77,0.00,,,0.03,0.000000,,2013-10-02 12:32:00,
2013-10-02 05:42:00,34.0,28.0,-100.00,East,98,0.0,6.0,77,0.00,,,0.03,0.000000,,2013-10-02 12:42:00,
2013-10-02 06:11:00,36.0,31.0,-100.00,NNE,29,0.0,7.0,81,0.00,,,0.03,0.000000,,2013-10-02 13:11:00,
2013-10-02 06:22:00,36.0,31.0,-100.00,NNE,29,0.0,7.0,81,0.00,,,0.03,0.000000,,2013-10-02 13:22:00,
2013-10-02 06:32:00,36.0,31.0,-100.00,NNE,29,0.0,7.0,81,0.00,,,0.03,0.000000,,2013-10-02 13:32:00,
2013-10-02 06:42:00,36.0,31.0,-100.00,NNE,29,0.0,7.0,81,0.00,,,0.03,0.000000,,2013-10-02 13:42:00,
2013-10-02 07:11:00,36.0,31.0,-100.00,ENE,64,6.0,7.0,83,0.00,,,0.03,0.000000,,2013-10-02 14:11:00,
2013-10-02 07:21:00,36.0,31.0,-100.00,ENE,64,6.0,7.0,83,0.00,,,0.03,0.000000,,2013-10-02 14:21:00,
2013-10-02 07:32:00,36.0,31.0,-100.00,ENE,64,6.0,7.0,83,0.00,,,0.03,0.000000,,2013-10-02 14:32:00,
2013-10-02 07:42:00,36.0,31.0,-100.00,ENE,64,6.0,7.0,83,0.00,,,0.03,0.000000,,2013-10-02 14:42:00,
2013-10-02 08:11:00,35.0,31.0,-100.00,NE,53,5.0,8.0,86,0.00,,,0.03,0.000000,,2013-10-02 15:11:00,
2013-10-02 08:22:00,35.0,31.0,-100.00,NE,53,5.0,8.0,86,0.00,,,0.03,0.000000,,2013-10-02 15:22:00,
2013-10-02 08:33:00,35.0,31.0,-100.00,NE,53,5.0,8.0,86,0.00,,,0.03,0.000000,,2013-10-02 15:33:00,
2013-10-02 08:43:00,35.0,31.0,-100.00,NE,53,5.0,8.0,86,0.00,,,0.03,0.000000,,2013-10-02 15:43:00,
2013-10-02 09:12:00,37.0,33.0,-100.00,NE,47,3.0,7.0,84,0.00,,,0.03,0.000000,,2013-10-02 16:12:00,
2013-10-02 09:23:00,37.0,33.0,-100.00,NE,47,3.0,7.0,84,0.00,,,0.03,0.000000,,2013-10-02 16:23:00,
2013-10-02 09:32:00,37.0,33.0,-100.00,NE,47,3.0,7.0,84,0.00,,,0.03,0.000000,,2013-10-02 16:32:00,
2013-10-02 09:43:00,37.0,33.0,-100.00,NE,47,3.0,7.0,84,0.00,,,0.03,0.000000,,2013-10-02 16:43:00,
2013-10-02 10:12:00,40.0,35.0,-100.00,ENE,75,7.0,9.0,83,0.00,,,0.03,50.000000,,2013-10-02 17:12:00,
2013-10-02 10:23:00,40.0,35.0,-100.00,ENE,75,7.0,9.0,83,0.00,,,0.03,50.000000,,2013-10-02 17:23:00,
2013-10-02 10:33:00,40.0,35.0,-100.00,ENE,75,7.0,9.0,83,0.00,,,0.03,50.000000,,2013-10-02 17:33:00,
2013-10-02 10:42:00,40.0,35.0,-100.00,ENE,75,7.0,9.0,83,0.00,,,0.03,50.000000,,2013-10-02 17:42:00,
2013-10-02 11:12:00,40.0,34.0,-100.00,East,90,6.0,10.0,80,0.00,,,0.03,92.000000,,2013-10-02 18:12:00,
2013-10-02 11:21:00,40.0,34.0,-100.00,East,90,6.0,10.0,80,0.00,,,0.03,92.000000,,2013-10-02 18:21:00,
2013-10-02 11:32:00,40.0,34.0,-100.00,East,90,6.0,10.0,80,0.00,,,0.03,92.000000,,2013-10-02 18:32:00,
2013-10-02 11:42:00,40.0,34.0,-100.00,East,90,6.0,10.0,80,0.00,,,0.03,92.000000,,2013-10-02 18:42:00,
2013-10-02 12:11:00,43.0,36.0,-100.00,East,95,5.0,10.0,75,0.00,,,0.03,256.000000,,2013-10-02 19:11:00,
2013-10-02 12:21:00,43.0,36.0,-100.00,East,95,5.0,10.0,75,0.00,,,0.03,256.000000,,2013-10-02 19:21:00,
2013-10-02 12:32:00,43.0,36.0,-100.00,East,95,5.0,10.0,75,0.00,,,0.03,256.000000,,2013-10-02 19:32:00,
2013-10-02 12:42:00,43.0,36.0,-100.00,East,95,5.0,10.0,75,0.00,,,0.03,256.000000,,2013-10-02 19:42:00,
2013-10-02 13:11:00,45.0,35.0,-100.00,SE,131,2.0,8.0,67,0.00,,,0.03,280.000000,,2013-10-02 20:11:00,
2013-10-02 13:22:00,45.0,35.0,-100.00,SE,131,2.0,8.0,67,0.00,,,0.03,280.000000,,2013-10-02 20:22:00,
2013-10-02 13:32:00,45.0,35.0,-100.00,SE,131,2.0,8.0,67,0.00,,,0.03,280.000000,,2013-10-02 20:32:00,
2013-10-02 13:42:00,45.0,35.0,-100.00,SE,131,2.0,8.0,67,0.00,,,0.03,280.000000,,2013-10-02 20:42:00,
2013-10-02 14:22:00,49.0,37.0,-100.00,East,98,6.0,9.0,62,0.00,,,0.03,260.000000,,2013-10-02 21:22:00,
2013-10-02 14:34:00,49.0,37.0,-100.00,East,98,6.0,9.0,62,0.00,,,0.03,260.000000,,2013-10-02 21:34:00,
2013-10-02 14:44:00,49.0,37.0,-100.00,East,98,6.0,9.0,62,0.00,,,0.03,260.000000,,2013-10-02 21:44:00,
2013-10-02 15:13:00,50.0,36.0,-100.00,ESE,105,6.0,11.0,59,0.00,,,0.03,207.000000,,2013-10-02 22:13:00,
2013-10-02 15:24:00,50.0,36.0,-100.00,ESE,105,6.0,11.0,59,0.00,,,0.03,207.000000,,2013-10-02 22:24:00,
2013-10-02 15:33:00,50.0,36.0,-100.00,ESE,105,6.0,11.0,59,0.00,,,0.03,207.000000,,2013-10-02 22:33:00,
2013-10-02 15:44:00,50.0,36.0,-100.00,ESE,105,6.0,11.0,59,0.00,,,0.03,207.000000,,2013-10-02 22:44:00,
2013-10-02 16:12:00,49.0,35.0,-100.00,East,85,7.0,13.0,59,0.00,,,0.00,105.000000,,2013-10-02 23:12:00,
2013-10-02 16:22:00,49.0,35.0,-100.00,East,85,7.0,13.0,59,0.00,,,0.00,105.000000,,2013-10-02 23:22:00,
2013-10-02 16:33:00,49.0,35.0,-100.00,East,85,7.0,13.0,59,0.00,,,0.00,105.000000,,2013-10-02 23:33:00,
2013-10-02 16:42:00,49.0,35.0,-100.00,East,85,7.0,13.0,59,0.00,,,0.00,105.000000,,2013-10-02 23:42:00,
2013-10-02 17:12:00,48.0,36.0,-100.00,East,81,8.0,13.0,63,0.00,,,0.00,0.000000,,2013-10-03 00:12:00,
2013-10-02 17:22:00,48.0,36.0,-100.00,East,81,8.0,13.0,63,0.00,,,0.00,0.000000,,2013-10-03 00:22:00,
2013-10-02 17:32:00,48.0,36.0,-100.00,East,81,8.0,13.0,63,0.00,,,0.00,0.000000,,2013-10-03 00:32:00,
2013-10-02 17:42:00,48.0,36.0,-100.00,East,81,8.0,13.0,63,0.00,,,0.00,0.000000,,2013-10-03 00:42:00,
2013-10-02 18:11:00,44.0,37.0,-100.00,NE,46,9.0,13.0,76,0.00,,,0.00,0.000000,,2013-10-03 01:11:00,
2013-10-02 18:22:00,44.0,37.0,-100.00,NE,46,9.0,13.0,76,0.00,,,0.00,0.000000,,2013-10-03 01:22:00,
2013-10-02 18:32:00,44.0,37.0,-100.00,NE,46,9.0,13.0,76,0.00,,,0.00,0.000000,,2013-10-03 01:32:00,
2013-10-02 18:42:00,44.0,37.0,-100.00,NE,46,9.0,13.0,76,0.00,,,0.00,0.000000,,2013-10-03 01:42:00,
2013-10-02 19:11:00,42.0,37.0,-100.00,NE,38,10.0,14.0,83,0.00,,,0.00,0.000000,,2013-10-03 02:11:00,
2013-10-02 19:22:00,42.0,37.0,-100.00,NE,38,10.0,14.0,83,0.00,,,0.00,0.000000,,2013-10-03 02:22:00,
2013-10-02 19:32:00,42.0,37.0,-100.00,NE,38,10.0,14.0,83,0.00,,,0.00,0.000000,,2013-10-03 02:32:00,
2013-10-02 19:41:00,42.0,37.0,-100.00,NE,38,10.0,14.0,83,0.00,,,0.00,0.000000,,2013-10-03 02:41:00,
2013-10-02 20:11:00,41.0,37.0,-100.00,NE,39,8.0,14.0,86,0.00,,,0.00,0.000000,,2013-10-03 03:11:00,
2013-10-02 20:22:00,41.0,37.0,-100.00,NE,39,8.0,14.0,86,0.00,,,0.00,0.000000,,2013-10-03 03:22:00,
2013-10-02 20:34:00,41.0,37.0,-100.00,NE,39,8.0,14.0,86,0.00,,,0.00,0.000000,,2013-10-03 03:34:00,
2013-10-02 20:44:00,41.0,37.0,-100.00,NE,39,8.0,14.0,86,0.00,,,0.00,0.000000,,2013-10-03 03:44:00,
2013-10-02 21:13:00,42.0,39.0,-100.00,NNE,26,8.0,14.0,89,0.00,,,0.00,0.000000,,2013-10-03 04:13:00,
2013-10-02 21:24:00,42.0,39.0,-100.00,NNE,26,8.0,14.0,89,0.00,,,0.00,0.000000,,2013-10-03 04:24:00,
2013-10-02 21:34:00,42.0,39.0,-100.00,NNE,26,8.0,14.0,89,0.00,,,0.00,0.000000,,2013-10-03 04:34:00,
2013-10-02 21:43:00,42.0,39.0,-100.00,NNE,26,8.0,14.0,89,0.00,,,0.00,0.000000,,2013-10-03 04:43:00,
2013-10-02 22:13:00,41.0,39.0,-100.00,North,9,5.0,10.0,91,0.00,,,0.00,0.000000,,2013-10-03 05:13:00,
2013-10-02 22:23:00,41.0,39.0,-100.00,North,9,5.0,10.0,91,0.00,,,0.00,0.000000,,2013-10-03 05:23:00,
2013-10-02 22:33:00,41.0,39.0,-100.00,North,9,5.0,10.0,91,0.00,,,0.00,0.000000,,2013-10-03 05:33:00,
2013-10-02 22:43:00,41.0,39.0,-100.00,North,9,5.0,10.0,91,0.00,,,0.00,0.000000,,2013-10-03 05:43:00,
2013-10-02 23:12:00,40.0,38.0,-100.00,NNW,343,4.0,8.0,91,0.00,,,0.00,0.000000,,2013-10-03 06:12:00,
2013-10-02 23:22:00,40.0,38.0,-100.00,NNW,343,4.0,8.0,91,0.00,,,0.00,0.000000,,2013-10-03 06:22:00,
2013-10-02 23:32:00,40.0,38.0,-100.00,NNW,343,4.0,8.0,91,0.00,,,0.00,0.000000,,2013-10-03 06:32:00,
2013-10-02 23:42:00,40.0,38.0,-100.00,NNW,343,4.0,8.0,91,0.00,,,0.00,0.000000,,2013-10-03 06:42:00,